Time;durP1;ratioP1;P1;durP2;ratioP2;P2;SDS_P1;SDS_P2;PMS_P1;PMS_P2;Temp;Humidity;BMP_temperature;BMP_pressure;BME280_temperature;BME280_humidity;BME280_pressure;Samples;Min_cycle;Max_cycle;Signal;HPM_P1;HPM_P2
2021/03/20 00:01:28;;;;;;;8.82;6.38;;;0.00;99.90;;;;;;5047340;28;20061;-71
2021/03/20 00:03:56;;;;;;;9.52;6.55;;;0.00;99.90;;;;;;5045767;28;20049;-71
2021/03/20 00:06:26;;;;;;;9.27;5.97;;;0.00;99.90;;;;;;5034077;28;20132;-70
2021/03/20 00:08:53;;;;;;;7.72;5.63;;;-0.10;99.90;;;;;;5032820;28;20045;-71
2021/03/20 00:11:21;;;;;;;7.65;5.60;;;-0.10;99.90;;;;;;5046050;28;20049;-71
2021/03/20 00:13:48;;;;;;;8.27;5.95;;;-0.10;99.90;;;;;;5046389;28;20053;-72
2021/03/20 00:16:16;;;;;;;9.43;6.13;;;-0.10;99.90;;;;;;5036381;28;20050;-71
2021/03/20 00:18:43;;;;;;;8.00;5.78;;;-0.10;99.90;;;;;;5026989;28;20645;-71
2021/03/20 00:21:11;;;;;;;8.18;6.57;;;-0.20;99.90;;;;;;5025982;28;20527;-71
2021/03/20 00:23:38;;;;;;;9.10;7.03;;;-0.10;99.90;;;;;;5043751;28;20076;-71
2021/03/20 00:26:06;;;;;;;12.10;7.93;;;-0.10;99.90;;;;;;5045831;28;20046;-71
2021/03/20 00:28:33;;;;;;;8.02;6.13;;;-0.10;99.90;;;;;;5047986;28;20105;-71
2021/03/20 00:31:03;;;;;;;7.95;5.68;;;-0.10;99.90;;;;;;5027382;28;20042;-71
2021/03/20 00:33:31;;;;;;;7.03;5.38;;;-0.20;99.90;;;;;;5036927;28;20057;-71
2021/03/20 00:35:58;;;;;;;10.00;5.80;;;-0.30;99.90;;;;;;5045209;28;20053;-71
2021/03/20 00:38:27;;;;;;;6.28;5.65;;;-0.30;99.90;;;;;;5042528;28;20132;-71
2021/03/20 00:40:56;;;;;;;7.90;5.97;;;-0.40;99.90;;;;;;5034140;28;20139;-72
2021/03/20 00:43:23;;;;;;;7.55;5.88;;;-0.50;99.90;;;;;;5024257;28;20043;-71
2021/03/20 00:45:51;;;;;;;8.43;6.03;;;-0.60;99.90;;;;;;5026467;28;20050;-72
2021/03/20 00:48:27;;;;;;;9.15;7.03;;;-0.70;99.90;;;;;;5021352;28;20064;-72
2021/03/20 00:50:55;;;;;;;10.68;7.30;;;-0.80;99.90;;;;;;5033584;28;20050;-72
2021/03/20 00:53:22;;;;;;;8.00;7.05;;;-0.90;99.90;;;;;;5035187;28;20049;-72
2021/03/20 00:55:49;;;;;;;8.90;7.28;;;-1.00;99.90;;;;;;5034399;28;20053;-73
2021/03/20 00:58:22;;;;;;;10.95;6.70;;;-1.00;99.90;;;;;;5029568;28;20041;-71
2021/03/20 01:00:49;;;;;;;10.07;6.57;;;-1.00;99.90;;;;;;5035691;28;20144;-74
2021/03/20 01:03:16;;;;;;;9.25;5.50;;;-1.10;99.90;;;;;;5033674;28;20049;-69
2021/03/20 01:05:44;;;;;;;10.48;6.63;;;-1.20;99.90;;;;;;5024064;28;20476;-71
2021/03/20 01:08:11;;;;;;;8.15;6.43;;;-1.20;99.90;;;;;;5031871;28;20061;-69
2021/03/20 01:10:38;;;;;;;8.40;6.00;;;-1.30;99.90;;;;;;5031488;28;20056;-71
2021/03/20 01:13:05;;;;;;;10.63;6.30;;;-1.40;99.90;;;;;;5028056;28;20046;-71
2021/03/20 01:15:32;;;;;;;8.90;6.35;;;-1.50;99.90;;;;;;5029279;28;20056;-69
2021/03/20 01:17:59;;;;;;;7.78;6.28;;;-1.50;99.90;;;;;;5032140;28;20041;-70
2021/03/20 01:20:27;;;;;;;7.05;5.43;;;-1.50;99.90;;;;;;5036877;28;20095;-72
2021/03/20 01:22:54;;;;;;;7.20;6.18;;;-1.50;99.90;;;;;;5033774;28;20104;-69
2021/03/20 01:25:22;;;;;;;9.88;6.70;;;-1.50;99.90;;;;;;5030646;28;20050;-71
2021/03/20 01:27:52;;;;;;;8.05;6.07;;;-1.40;99.90;;;;;;5022849;28;20056;-72
2021/03/20 01:30:26;;;;;;;9.00;6.13;;;-1.50;99.90;;;;;;5029116;28;20072;-72
2021/03/20 01:32:52;;;;;;;9.07;6.32;;;-1.50;99.90;;;;;;5031997;28;20067;-72
2021/03/20 01:35:20;;;;;;;10.00;6.10;;;-1.50;99.90;;;;;;5025142;28;20108;-72
2021/03/20 01:37:47;;;;;;;9.40;6.18;;;-1.50;99.90;;;;;;5020316;28;20096;-71
2021/03/20 01:40:16;;;;;;;9.50;6.10;;;-1.60;99.90;;;;;;5017828;28;20060;-69
2021/03/20 01:42:44;;;;;;;8.23;5.60;;;-1.60;99.90;;;;;;5031629;28;20046;-68
2021/03/20 01:45:29;;;;;;;8.55;6.05;;;-1.70;99.90;;;;;;5034318;28;20069;-67
2021/03/20 01:47:57;;;;;;;7.35;5.90;;;-1.70;99.90;;;;;;5032969;28;20041;-67
2021/03/20 01:50:36;;;;;;;9.70;6.47;;;-1.80;99.90;;;;;;5033116;28;20053;-69
2021/03/20 01:53:21;;;;;;;7.20;6.07;;;-1.80;99.90;;;;;;5035920;28;20060;-68
2021/03/20 01:55:48;;;;;;;10.45;6.50;;;-1.80;99.90;;;;;;5033425;28;20057;-68
2021/03/20 01:58:15;;;;;;;8.77;6.38;;;-1.90;99.90;;;;;;5034124;28;20518;-68
2021/03/20 02:00:44;;;;;;;7.53;6.07;;;-2.00;99.90;;;;;;5033526;28;20049;-68
2021/03/20 02:03:17;;;;;;;7.65;6.03;;;-2.00;99.90;;;;;;5034592;28;20141;-68
2021/03/20 02:05:45;;;;;;;11.20;6.95;;;-2.10;99.90;;;;;;5028872;28;20064;-69
2021/03/20 02:08:15;;;;;;;8.15;6.28;;;-2.10;99.90;;;;;;5028592;28;20136;-72
2021/03/20 02:10:45;;;;;;;7.15;5.82;;;-2.10;99.90;;;;;;5031833;28;20045;-68
2021/03/20 02:13:30;;;;;;;8.13;6.20;;;-2.20;99.90;;;;;;5019810;28;20080;-68
2021/03/20 02:16:03;;;;;;;7.95;6.20;;;-2.20;99.90;;;;;;5024407;28;20423;-67
2021/03/20 02:19:02;;;;;;;9.95;6.28;;;-2.20;99.90;;;;;;5028201;28;20060;-68
2021/03/20 02:21:42;;;;;;;7.97;6.60;;;-2.30;99.90;;;;;;5027018;28;20049;-69
2021/03/20 02:24:46;;;;;;;10.15;6.32;;;-2.20;99.90;;;;;;5033842;28;20081;-68
2021/03/20 02:27:21;;;;;;;8.27;6.57;;;-2.20;99.90;;;;;;5030799;28;20052;-68
2021/03/20 02:30:03;;;;;;;8.75;6.82;;;-2.10;99.90;;;;;;5033914;28;20076;-68
2021/03/20 02:32:54;;;;;;;10.38;6.57;;;-2.10;99.90;;;;;;5032608;28;20138;-69
2021/03/20 02:35:29;;;;;;;7.97;6.90;;;-2.10;99.90;;;;;;5031441;28;20049;-69
2021/03/20 02:38:08;;;;;;;7.90;6.28;;;-2.00;99.90;;;;;;5031983;28;20407;-69
2021/03/20 02:41:10;;;;;;;9.70;6.72;;;-2.00;99.90;;;;;;5032941;28;20055;-69
2021/03/20 02:44:05;;;;;;;12.02;7.68;;;-2.00;99.90;;;;;;5026279;28;20045;-68
2021/03/20 02:46:37;;;;;;;9.85;7.40;;;-1.90;99.90;;;;;;5028767;28;20045;-68
2021/03/20 02:49:32;;;;;;;8.90;7.22;;;-1.90;99.90;;;;;;5030683;28;20057;-68
2021/03/20 02:52:08;;;;;;;10.68;7.43;;;-1.90;99.90;;;;;;5022795;28;20053;-69
2021/03/20 02:54:44;;;;;;;9.52;7.30;;;-1.90;99.90;;;;;;5032379;28;20131;-69
2021/03/20 02:57:52;;;;;;;12.05;8.02;;;-1.90;99.90;;;;;;5031047;28;20127;-69
2021/03/20 03:00:31;;;;;;;11.80;7.30;;;-1.90;99.90;;;;;;5028041;28;20056;-68
2021/03/20 03:03:00;;;;;;;12.93;8.75;;;-2.00;99.90;;;;;;5020448;28;20053;-68
2021/03/20 03:05:36;;;;;;;10.40;8.43;;;-1.90;99.90;;;;;;5032612;28;20046;-68
2021/03/20 03:08:09;;;;;;;9.73;7.80;;;-1.90;99.90;;;;;;5029865;28;20042;-69
2021/03/20 03:11:12;;;;;;;12.25;8.00;;;-1.90;99.90;;;;;;5032199;28;20061;-69
2021/03/20 03:13:45;;;;;;;10.70;7.72;;;-1.90;99.90;;;;;;5031422;28;20124;-69
2021/03/20 03:16:19;;;;;;;10.02;7.95;;;-2.00;99.90;;;;;;5030406;28;20410;-68
2021/03/20 03:18:51;;;;;;;14.23;7.68;;;-2.00;99.90;;;;;;5033114;28;20049;-68
2021/03/20 03:21:20;;;;;;;9.93;7.82;;;-2.00;99.90;;;;;;5033215;28;20045;-69
2021/03/20 03:23:46;;;;;;;11.48;8.13;;;-2.10;99.90;;;;;;5031562;28;20052;-69
2021/03/20 03:26:28;;;;;;;11.05;8.43;;;-2.10;99.90;;;;;;5035995;28;20053;-69
2021/03/20 03:29:10;;;;;;;9.13;7.82;;;-2.20;99.90;;;;;;5036113;28;20058;-68
2021/03/20 03:31:53;;;;;;;11.98;7.90;;;-2.30;99.90;;;;;;5028196;28;20055;-67
2021/03/20 03:34:39;;;;;;;11.32;7.55;;;-2.40;99.90;;;;;;5036943;28;20053;-69
2021/03/20 03:37:15;;;;;;;12.65;7.40;;;-2.40;99.90;;;;;;5018689;28;20057;-69
2021/03/20 03:39:52;;;;;;;12.70;7.25;;;-2.30;99.90;;;;;;5035190;28;20056;-69
2021/03/20 03:42:20;;;;;;;11.20;7.07;;;-2.40;99.90;;;;;;5037302;28;20129;-69
2021/03/20 03:44:49;;;;;;;7.70;6.78;;;-2.40;99.90;;;;;;5037131;28;20053;-69
2021/03/20 03:47:23;;;;;;;10.85;7.78;;;-2.50;99.90;;;;;;5037419;28;20056;-70
2021/03/20 03:49:53;;;;;;;10.32;7.50;;;-2.60;99.90;;;;;;5023197;28;20057;-69
2021/03/20 03:52:20;;;;;;;9.75;7.10;;;-2.60;99.90;;;;;;5028834;28;20047;-68
2021/03/20 03:54:48;;;;;;;9.23;6.47;;;-2.50;99.90;;;;;;5018751;28;20087;-69
2021/03/20 03:57:45;;;;;;;10.65;6.80;;;-2.60;99.90;;;;;;5023364;28;20415;-69
2021/03/20 04:00:48;;;;;;;8.23;6.43;;;-2.60;99.90;;;;;;5031616;28;20060;-69
2021/03/20 04:03:21;;;;;;;7.68;6.65;;;-2.80;99.90;;;;;;5034696;28;20137;-69
2021/03/20 04:06:26;;;;;;;10.20;7.10;;;-2.80;99.90;;;;;;5026996;28;20100;-69
2021/03/20 04:09:26;;;;;;;8.68;6.88;;;-2.90;99.90;;;;;;5036861;28;20049;-69
2021/03/20 04:12:18;;;;;;;10.77;7.32;;;-2.90;99.90;;;;;;5036659;28;20053;-68
2021/03/20 04:15:02;;;;;;;9.25;7.05;;;-2.90;99.90;;;;;;5020460;28;20061;-69
2021/03/20 04:17:57;;;;;;;10.27;6.82;;;-2.90;99.90;;;;;;5019115;28;20046;-70
2021/03/20 04:20:36;;;;;;;10.05;7.30;;;-2.90;99.90;;;;;;5031777;28;20411;-69
2021/03/20 04:23:13;;;;;;;8.70;7.47;;;-2.90;99.90;;;;;;5026065;28;20562;-68
2021/03/20 04:25:59;;;;;;;10.52;6.97;;;-2.90;99.90;;;;;;5030319;28;20059;-69
2021/03/20 04:28:46;;;;;;;8.77;6.30;;;-3.00;99.90;;;;;;5018557;28;20060;-69
2021/03/20 04:31:27;;;;;;;8.10;7.00;;;-3.00;99.90;;;;;;5020372;28;20073;-69
2021/03/20 04:34:03;;;;;;;8.52;6.97;;;-3.00;99.90;;;;;;5015939;28;20519;-69
2021/03/20 04:36:42;;;;;;;7.97;6.47;;;-3.00;99.90;;;;;;5031672;28;20137;-69
2021/03/20 04:39:12;;;;;;;11.50;6.47;;;-3.10;99.90;;;;;;5032413;28;20049;-70
2021/03/20 04:41:40;;;;;;;8.80;6.25;;;-3.10;99.90;;;;;;5025685;28;20050;-69
2021/03/20 04:44:07;;;;;;;8.27;6.00;;;-3.20;99.90;;;;;;5012624;28;20057;-69
2021/03/20 04:46:44;;;;;;;9.80;6.82;;;-3.20;99.90;;;;;;5019133;28;20049;-69
2021/03/20 04:49:32;;;;;;;9.52;6.55;;;-3.10;99.90;;;;;;5031749;28;20416;-69
2021/03/20 04:52:12;;;;;;;10.70;6.75;;;-3.20;99.90;;;;;;5011544;28;20056;-69
2021/03/20 04:54:39;;;;;;;10.05;6.53;;;-3.10;99.90;;;;;;5026896;28;20049;-69
2021/03/20 04:57:41;;;;;;;10.50;6.80;;;-3.20;99.90;;;;;;5019746;28;20045;-69
2021/03/20 05:00:13;;;;;;;8.48;6.32;;;-3.20;99.90;;;;;;5030061;28;20052;-69
2021/03/20 05:02:52;;;;;;;10.00;6.97;;;-3.20;99.90;;;;;;5033114;28;20041;-70
2021/03/20 05:05:47;;;;;;;11.82;7.30;;;-3.30;99.90;;;;;;5020489;28;20042;-68
2021/03/20 05:08:33;;;;;;;10.25;8.27;;;-3.30;99.90;;;;;;5023276;28;20479;-69
2021/03/20 05:11:09;;;;;;;10.07;7.35;;;-3.30;99.90;;;;;;5032730;28;20067;-69
2021/03/20 05:13:41;;;;;;;9.70;7.38;;;-3.30;99.90;;;;;;5034226;28;20045;-70
2021/03/20 05:16:16;;;;;;;;;;;-3.30;99.90;;;;;;5033943;28;20045;-69
2021/03/20 05:18:49;;;;;;;9.98;6.43;;;-3.30;99.90;;;;;;5032870;28;19921;-69
2021/03/20 05:21:22;;;;;;;10.57;6.80;;;-3.30;99.90;;;;;;5033822;28;20513;-69
2021/03/20 05:23:49;;;;;;;8.27;6.68;;;-3.30;99.90;;;;;;5021751;28;20046;-70
2021/03/20 05:26:16;;;;;;;10.93;7.20;;;-3.30;99.90;;;;;;5023035;28;20061;-69
2021/03/20 05:28:43;;;;;;;7.65;6.45;;;-3.30;99.90;;;;;;5032935;28;20071;-69
2021/03/20 05:31:09;;;;;;;9.73;6.97;;;-3.30;99.90;;;;;;5025968;28;20053;-69
2021/03/20 05:33:39;;;;;;;8.43;6.63;;;-3.30;99.90;;;;;;5017797;28;20050;-68
2021/03/20 05:36:07;;;;;;;9.18;6.93;;;-3.30;99.90;;;;;;5026362;28;20046;-70
2021/03/20 05:38:34;;;;;;;9.23;7.45;;;-3.20;99.90;;;;;;5025729;28;20056;-73
2021/03/20 05:41:20;;;;;;;10.43;7.20;;;-3.20;99.90;;;;;;5020841;28;20049;-70
2021/03/20 05:43:58;;;;;;;8.45;7.10;;;-3.10;99.90;;;;;;5031962;28;20392;-72
2021/03/20 05:46:55;;;;;;;8.57;7.18;;;-3.10;99.90;;;;;;5025714;28;20053;-72
2021/03/20 05:49:33;;;;;;;10.82;7.45;;;-3.10;99.90;;;;;;5015406;28;20049;-72
2021/03/20 05:52:21;;;;;;;15.07;8.05;;;-3.10;99.90;;;;;;5032105;28;20071;-72
2021/03/20 05:55:02;;;;;;;9.60;7.18;;;-3.00;99.90;;;;;;5027094;28;20037;-73
2021/03/20 05:57:41;;;;;;;11.85;7.45;;;-3.00;99.90;;;;;;5026129;28;20057;-71
2021/03/20 06:00:28;;;;;;;11.63;7.60;;;-3.00;99.90;;;;;;5029458;28;20049;-72
2021/03/20 06:03:34;;;;;;;8.82;7.30;;;-2.90;99.90;;;;;;5026088;28;20054;-71
2021/03/20 06:06:05;;;;;;;8.68;6.55;;;-2.80;99.90;;;;;;5026505;28;20499;-73
2021/03/20 06:09:11;;;;;;;9.20;7.30;;;-2.70;99.90;;;;;;5023475;28;20480;-72
2021/03/20 06:11:56;;;;;;;11.63;7.32;;;-2.70;99.90;;;;;;5026107;28;20054;-72
2021/03/20 06:14:44;;;;;;;9.77;6.55;;;-2.50;99.90;;;;;;5018761;28;20051;-73
2021/03/20 06:17:21;;;;;;;9.10;8.10;;;-2.50;99.90;;;;;;5024544;28;20051;-71
2021/03/20 06:20:06;;;;;;;10.85;7.50;;;-2.40;99.90;;;;;;5025689;28;20045;-72
2021/03/20 06:22:40;;;;;;;8.35;7.20;;;-2.30;99.90;;;;;;5020310;28;20132;-73
2021/03/20 06:25:28;;;;;;;10.45;7.75;;;-2.30;99.90;;;;;;5032210;28;20209;-72
2021/03/20 06:27:55;;;;;;;10.75;8.07;;;-2.30;99.90;;;;;;5032547;28;20053;-72
2021/03/20 06:30:37;;;;;;;9.20;7.70;;;-2.20;99.90;;;;;;5032255;28;20053;-71
2021/03/20 06:33:11;;;;;;;10.80;7.80;;;-2.20;99.90;;;;;;5019088;28;20049;-72
2021/03/20 06:35:52;;;;;;;9.40;7.53;;;-2.10;99.90;;;;;;5032168;28;20045;-72
2021/03/20 06:38:47;;;;;;;10.35;7.93;;;-2.00;99.90;;;;;;5032547;28;20061;-72
2021/03/20 06:42:00;;;;;;;8.07;7.03;;;-1.90;99.90;;;;;;5030861;28;20403;-72
2021/03/20 06:44:32;;;;;;;;;;;-1.80;99.90;;;;;;5026903;28;20487;-72
2021/03/20 06:46:59;;;;;;;12.27;7.38;;;-1.80;99.90;;;;;;5032043;28;19921;-72
2021/03/20 06:49:41;;;;;;;9.20;7.22;;;-1.70;99.90;;;;;;5030981;28;20064;-72
2021/03/20 06:52:17;;;;;;;10.40;8.00;;;-1.70;99.90;;;;;;5025048;28;20407;-72
2021/03/20 06:54:45;;;;;;;10.75;7.93;;;-1.70;99.90;;;;;;5029064;28;20047;-73
2021/03/20 06:57:12;;;;;;;11.57;7.93;;;-1.70;99.90;;;;;;5021419;28;20056;-72
2021/03/20 06:59:38;;;;;;;13.73;8.07;;;-1.50;99.90;;;;;;5029463;28;20052;-72
2021/03/20 07:02:20;;;;;;;9.35;8.00;;;-1.60;99.90;;;;;;5031811;28;20041;-71
2021/03/20 07:04:59;;;;;;;9.75;8.35;;;-1.50;99.90;;;;;;5033183;28;20053;-72
2021/03/20 07:07:34;;;;;;;11.30;8.95;;;-1.50;99.90;;;;;;5034346;28;20053;-70
2021/03/20 07:10:06;;;;;;;9.05;8.10;;;-1.50;99.90;;;;;;5027354;28;20054;-71
2021/03/20 07:12:32;;;;;;;10.23;9.05;;;-1.50;99.90;;;;;;5026617;28;20084;-70
2021/03/20 07:15:00;;;;;;;10.05;8.02;;;-1.60;99.90;;;;;;5029638;28;20042;-69
2021/03/20 07:17:36;;;;;;;11.70;8.40;;;-1.60;99.90;;;;;;5035653;28;20045;-69
2021/03/20 07:20:09;;;;;;;11.38;8.45;;;-1.60;99.90;;;;;;5037428;28;20388;-69
2021/03/20 07:22:48;;;;;;;9.40;8.00;;;-1.50;99.90;;;;;;5036092;28;20479;-68
2021/03/20 07:25:29;;;;;;;10.15;8.65;;;-1.40;99.90;;;;;;5033050;28;20049;-70
2021/03/20 07:28:07;;;;;;;10.60;9.50;;;-1.40;99.90;;;;;;5030659;28;20050;-68
2021/03/20 07:30:46;;;;;;;10.70;9.00;;;-1.40;99.90;;;;;;5029182;28;20140;-69
2021/03/20 07:33:25;;;;;;;9.85;8.30;;;-1.30;99.90;;;;;;5024165;28;20079;-69
2021/03/20 07:35:55;;;;;;;12.55;8.95;;;-1.20;99.90;;;;;;5026054;28;20045;-69
2021/03/20 07:38:27;;;;;;;9.25;8.35;;;-1.10;99.90;;;;;;5027214;28;20057;-69
2021/03/20 07:41:09;;;;;;;9.40;8.50;;;-1.00;99.90;;;;;;5022645;28;20491;-69
2021/03/20 07:43:36;;;;;;;9.18;8.27;;;-0.90;99.90;;;;;;5028169;28;20140;-69
2021/03/20 07:46:15;;;;;;;10.00;8.75;;;-0.90;99.90;;;;;;5028168;28;20088;-69
2021/03/20 07:48:44;;;;;;;9.68;8.27;;;-0.90;99.90;;;;;;5029372;28;20053;-69
2021/03/20 07:51:16;;;;;;;9.13;8.27;;;-0.90;99.90;;;;;;5032203;28;20041;-68
2021/03/20 07:53:51;;;;;;;10.23;8.57;;;-0.90;99.90;;;;;;5033918;28;20371;-69
2021/03/20 07:56:36;;;;;;;9.50;8.40;;;-0.80;99.90;;;;;;5021593;28;20053;-69
2021/03/20 07:59:17;;;;;;;11.43;8.65;;;-0.80;99.90;;;;;;5029521;28;20398;-68
2021/03/20 08:01:50;;;;;;;10.32;9.13;;;-0.70;99.90;;;;;;5031955;28;20049;-68
2021/03/20 08:04:17;;;;;;;9.50;8.60;;;-0.70;99.90;;;;;;5034285;28;20053;-70
2021/03/20 08:06:49;;;;;;;10.05;8.95;;;-0.60;99.90;;;;;;5031833;28;20042;-69
2021/03/20 08:09:19;;;;;;;11.00;8.90;;;-0.50;99.90;;;;;;5023249;28;20053;-69
2021/03/20 08:11:47;;;;;;;15.25;8.93;;;-0.30;99.90;;;;;;5031952;28;20061;-70
2021/03/20 08:14:31;;;;;;;9.70;8.80;;;-0.20;99.90;;;;;;5030799;28;20046;-69
2021/03/20 08:16:58;;;;;;;9.48;8.57;;;0.10;99.90;;;;;;5032979;28;20049;-68
2021/03/20 08:19:25;;;;;;;9.80;8.80;;;0.30;99.90;;;;;;5035370;28;20103;-70
2021/03/20 08:21:55;;;;;;;11.25;8.40;;;0.40;99.90;;;;;;5030475;28;20045;-69
2021/03/20 08:24:39;;;;;;;11.65;8.90;;;0.50;99.90;;;;;;5032611;28;20059;-69
2021/03/20 08:27:23;;;;;;;9.20;8.40;;;0.80;99.90;;;;;;5021470;28;20393;-68
2021/03/20 08:30:14;;;;;;;10.35;9.25;;;0.80;99.90;;;;;;5025440;28;20045;-68
2021/03/20 08:33:18;;;;;;;11.90;9.00;;;1.20;99.90;;;;;;5027365;28;20052;-69
2021/03/20 08:36:26;;;;;;;9.73;8.80;;;1.50;99.90;;;;;;5028660;28;20045;-69
2021/03/20 08:38:55;;;;;;;10.07;8.98;;;1.80;99.90;;;;;;5033889;28;20049;-69
2021/03/20 08:41:28;;;;;;;10.50;9.60;;;1.80;99.90;;;;;;5034652;28;20084;-68
2021/03/20 08:44:33;;;;;;;12.77;9.77;;;1.80;99.90;;;;;;5034547;28;20045;-69
2021/03/20 08:47:22;;;;;;;10.65;9.70;;;1.60;99.90;;;;;;5022042;28;20053;-69
2021/03/20 08:50:01;;;;;;;12.35;10.80;;;1.40;99.90;;;;;;5028612;28;20467;-67
2021/03/20 08:52:36;;;;;;;11.65;10.60;;;1.40;99.90;;;;;;5034137;28;20047;-67
2021/03/20 08:55:34;;;;;;;10.70;9.80;;;1.60;99.90;;;;;;5025808;28;20087;-69
2021/03/20 08:58:31;;;;;;;11.05;10.15;;;1.60;99.90;;;;;;5031855;28;20111;-68
2021/03/20 09:01:19;;;;;;;10.77;9.68;;;1.40;99.90;;;;;;5028294;28;20046;-70
2021/03/20 09:03:53;;;;;;;10.57;9.52;;;1.50;99.90;;;;;;5027279;28;20057;-69
2021/03/20 09:06:28;;;;;;;11.50;9.73;;;1.70;99.90;;;;;;5025456;28;20106;-68
2021/03/20 09:08:57;;;;;;;;;;;2.00;99.90;;;;;;5025715;28;20552;-69
2021/03/20 09:11:55;;;;;;;10.00;9.07;;;2.00;99.90;;;;;;5023345;28;19921;-69
2021/03/20 09:14:29;;;;;;;10.27;9.38;;;2.30;99.90;;;;;;5028415;28;20095;-69
2021/03/20 09:17:03;;;;;;;10.45;9.45;;;2.30;99.90;;;;;;5033172;28;20495;-69
2021/03/20 09:19:38;;;;;;;9.68;8.80;;;2.40;99.90;;;;;;5031621;28;20462;-68
2021/03/20 09:22:11;;;;;;;10.13;9.23;;;2.60;99.90;;;;;;5030053;28;20475;-69
2021/03/20 09:24:47;;;;;;;9.75;8.90;;;2.90;99.90;;;;;;5027101;28;20060;-68
2021/03/20 09:27:35;;;;;;;10.73;9.65;;;3.10;99.90;;;;;;5032095;28;20398;-70
2021/03/20 09:30:28;;;;;;;10.27;9.38;;;3.20;99.90;;;;;;5023735;28;20045;-69
2021/03/20 09:32:55;;;;;;;10.60;9.70;;;3.10;99.90;;;;;;5023620;28;20475;-69
2021/03/20 09:35:38;;;;;;;10.27;9.43;;;2.90;99.90;;;;;;5025794;28;20483;-68
2021/03/20 09:38:05;;;;;;;10.50;9.50;;;2.60;99.90;;;;;;5021107;28;20049;-69
2021/03/20 09:40:54;;;;;;;9.93;9.02;;;2.50;99.90;;;;;;5024637;28;20042;-68
2021/03/20 09:43:38;;;;;;;14.23;11.55;;;2.40;99.90;;;;;;5029507;28;20045;-69
2021/03/20 09:46:38;;;;;;;11.20;10.10;;;2.40;99.90;;;;;;5031706;28;20140;-70
2021/03/20 09:49:08;;;;;;;10.45;9.40;;;2.50;99.90;;;;;;5024787;28;20068;-70
2021/03/20 09:51:50;;;;;;;10.30;9.40;;;2.70;99.90;;;;;;5031285;28;20514;-69
2021/03/20 09:54:43;;;;;;;;;;;3.00;99.90;;;;;;5032326;28;20057;-69
2021/03/20 09:57:19;;;;;;;10.80;9.80;;;3.40;99.90;;;;;;5031051;28;19927;-68
2021/03/20 09:59:47;;;;;;;10.45;9.48;;;3.70;99.90;;;;;;5028336;28;20088;-68
2021/03/20 10:02:19;;;;;;;10.07;8.95;;;3.70;99.90;;;;;;5031913;28;20042;-69
2021/03/20 10:04:52;;;;;;;9.98;8.98;;;3.90;99.90;;;;;;5031954;28;20061;-69
2021/03/20 10:07:21;;;;;;;11.15;9.25;;;3.70;99.90;;;;;;5030523;28;20053;-69
2021/03/20 10:10:13;;;;;;;10.52;9.63;;;3.70;99.90;;;;;;5032070;28;20533;-69
2021/03/20 10:12:46;;;;;;;10.50;9.57;;;3.50;99.90;;;;;;5031156;28;20099;-68
2021/03/20 10:15:14;;;;;;;10.02;9.02;;;3.30;99.90;;;;;;5031481;28;20042;-68
2021/03/20 10:18:06;;;;;;;10.05;9.05;;;3.20;99.90;;;;;;5031921;28;20041;-68
2021/03/20 10:20:41;;;;;;;11.77;8.70;;;3.50;99.90;;;;;;5030860;28;20084;-69
2021/03/20 10:23:33;;;;;;;9.45;8.45;;;4.00;99.90;;;;;;5031173;28;20049;-69
2021/03/20 10:26:13;;;;;;;9.45;8.65;;;4.30;99.90;;;;;;5020068;28;20049;-69
2021/03/20 10:28:49;;;;;;;10.45;9.45;;;4.50;99.90;;;;;;5022807;28;20049;-68
2021/03/20 10:31:17;;;;;;;9.70;8.80;;;4.80;99.90;;;;;;5017069;28;20492;-68
2021/03/20 10:33:46;;;;;;;9.88;8.88;;;4.90;99.90;;;;;;5021950;28;20045;-68
2021/03/20 10:36:16;;;;;;;9.73;8.82;;;5.20;99.80;;;;;;5031379;28;20056;-68
2021/03/20 10:38:44;;;;;;;9.60;8.80;;;5.40;98.60;;;;;;5030502;28;20484;-68
2021/03/20 10:41:17;;;;;;;9.52;8.73;;;5.30;95.50;;;;;;5031147;28;20045;-69
2021/03/20 10:44:03;;;;;;;10.95;9.85;;;5.10;96.50;;;;;;5030848;28;20049;-69
2021/03/20 10:46:49;;;;;;;12.23;9.95;;;5.20;98.20;;;;;;5023072;28;20056;-67
2021/03/20 10:49:23;;;;;;;10.23;9.23;;;5.20;96.60;;;;;;5014348;28;20458;-67
2021/03/20 10:51:52;;;;;;;9.73;8.93;;;5.30;94.70;;;;;;5030807;28;20053;-68
2021/03/20 10:54:24;;;;;;;10.05;9.13;;;5.60;96.30;;;;;;5031719;28;20049;-68
2021/03/20 10:56:54;;;;;;;9.73;8.82;;;6.10;96.80;;;;;;5031719;28;20057;-68
2021/03/20 10:59:38;;;;;;;11.02;10.07;;;6.50;93.30;;;;;;5027123;28;20049;-68
2021/03/20 11:02:25;;;;;;;10.32;9.43;;;6.70;92.70;;;;;;5018816;28;20049;-68
2021/03/20 11:04:55;;;;;;;11.43;10.48;;;7.10;91.70;;;;;;5024013;28;20046;-68
2021/03/20 11:07:24;;;;;;;9.93;9.02;;;7.50;90.80;;;;;;5020415;28;20054;-67
2021/03/20 11:10:09;;;;;;;9.50;8.70;;;7.40;89.20;;;;;;5020671;28;20048;-67
2021/03/20 11:12:35;;;;;;;9.80;8.80;;;7.50;85.50;;;;;;5027307;28;20042;-68
2021/03/20 11:15:03;;;;;;;10.32;9.43;;;7.20;83.70;;;;;;5027721;28;20053;-67
2021/03/20 11:17:32;;;;;;;10.10;9.20;;;7.30;84.00;;;;;;5030982;28;20488;-68
2021/03/20 11:20:15;;;;;;;11.00;10.00;;;7.30;86.70;;;;;;5015999;28;20111;-68
2021/03/20 11:22:42;;;;;;;12.38;10.07;;;7.70;85.70;;;;;;5019387;28;20052;-68
2021/03/20 11:25:16;;;;;;;10.48;9.57;;;7.70;82.90;;;;;;5031585;28;20053;-67
2021/03/20 11:27:42;;;;;;;13.48;12.18;;;7.60;82.00;;;;;;5031374;28;20091;-68
2021/03/20 11:30:12;;;;;;;11.00;9.90;;;7.70;89.30;;;;;;5026678;28;20042;-68
2021/03/20 11:32:41;;;;;;;10.55;9.65;;;8.00;83.70;;;;;;5016816;28;20073;-68
2021/03/20 11:35:29;;;;;;;10.00;9.18;;;8.20;81.30;;;;;;5021461;28;20042;-68
2021/03/20 11:38:00;;;;;;;10.00;9.20;;;7.70;80.10;;;;;;5018835;28;20049;-68
2021/03/20 11:40:41;;;;;;;10.15;9.35;;;7.50;78.20;;;;;;5029718;28;20045;-69
2021/03/20 11:43:23;;;;;;;10.00;9.13;;;6.90;78.10;;;;;;5030223;28;20084;-68
2021/03/20 11:45:51;;;;;;;;;;;6.70;79.80;;;;;;5031024;28;20057;-68
2021/03/20 11:48:30;;;;;;;9.93;9.13;;;7.10;81.90;;;;;;5023866;28;19925;-67
2021/03/20 11:50:59;;;;;;;10.00;9.10;;;7.60;81.20;;;;;;5029031;28;20447;-69
2021/03/20 11:53:42;;;;;;;9.90;9.10;;;8.10;79.10;;;;;;5032682;28;20133;-67
2021/03/20 11:56:16;;;;;;;10.27;9.00;;;8.40;79.50;;;;;;5032971;28;20052;-67
2021/03/20 11:58:58;;;;;;;9.77;8.93;;;8.90;82.20;;;;;;5026385;28;20054;-67
2021/03/20 12:01:30;;;;;;;10.25;9.35;;;8.80;79.50;;;;;;5024870;28;20543;-66
2021/03/20 12:04:02;;;;;;;9.57;8.77;;;8.50;77.00;;;;;;5027884;28;20465;-68
2021/03/20 12:06:30;;;;;;;;;;;8.70;80.10;;;;;;5019457;28;20137;-68
2021/03/20 12:08:58;;;;;;;10.30;9.43;;;9.40;76.30;;;;;;5029162;28;19929;-68
2021/03/20 12:11:46;;;;;;;9.35;8.65;;;9.90;74.20;;;;;;5030529;28;20049;-68
2021/03/20 12:14:48;;;;;;;10.57;9.60;;;10.30;70.90;;;;;;5026970;28;20053;-67
2021/03/20 12:17:16;;;;;;;9.90;9.10;;;10.70;69.20;;;;;;5031596;28;20095;-68
2021/03/20 12:20:15;;;;;;;10.65;9.85;;;11.20;69.30;;;;;;5034088;28;20561;-67
2021/03/20 12:22:47;;;;;;;12.38;11.18;;;11.40;72.10;;;;;;5031316;28;20443;-68
2021/03/20 12:25:32;;;;;;;11.93;10.73;;;12.10;66.60;;;;;;5033681;28;20423;-68
2021/03/20 12:28:33;;;;;;;10.35;9.45;;;12.10;69.10;;;;;;5024668;28;20113;-68
2021/03/20 12:31:14;;;;;;;9.60;8.90;;;11.90;70.50;;;;;;5023156;28;20078;-68
2021/03/20 12:33:55;;;;;;;9.82;9.05;;;12.50;68.80;;;;;;5020173;28;20045;-68
2021/03/20 12:36:33;;;;;;;10.32;9.52;;;13.10;65.90;;;;;;5029185;28;20046;-68
2021/03/20 12:39:00;;;;;;;10.32;9.40;;;13.70;64.60;;;;;;5028728;28;20041;-68
2021/03/20 12:41:29;;;;;;;10.20;9.30;;;13.50;62.40;;;;;;5030754;28;20081;-68
2021/03/20 12:44:20;;;;;;;10.05;9.35;;;13.40;62.00;;;;;;5025528;28;20057;-68
2021/03/20 12:46:59;;;;;;;9.25;8.43;;;12.80;62.60;;;;;;5016849;28;20149;-68
2021/03/20 12:49:32;;;;;;;9.90;9.00;;;13.20;61.80;;;;;;5025386;28;20053;-68
2021/03/20 12:52:06;;;;;;;9.65;8.75;;;13.20;62.40;;;;;;5033213;28;20054;-67
2021/03/20 12:54:37;;;;;;;9.32;8.63;;;13.20;59.30;;;;;;5021371;28;20068;-70
2021/03/20 12:57:05;;;;;;;9.30;8.50;;;13.10;59.70;;;;;;5017726;28;20120;-68
2021/03/20 12:59:31;;;;;;;9.52;8.73;;;13.00;60.80;;;;;;5023547;28;20050;-68
2021/03/20 13:01:58;;;;;;;13.50;12.07;;;12.80;59.60;;;;;;5017845;28;20460;-68
2021/03/20 13:04:25;;;;;;;10.82;9.77;;;13.40;64.40;;;;;;5021895;28;20080;-68
2021/03/20 13:06:51;;;;;;;10.27;9.35;;;13.70;58.60;;;;;;5018076;28;20476;-68
2021/03/20 13:09:19;;;;;;;10.10;9.30;;;14.50;59.50;;;;;;5026597;28;20099;-70
2021/03/20 13:11:46;;;;;;;10.13;9.23;;;14.90;58.20;;;;;;5030157;28;20049;-69
2021/03/20 13:14:13;;;;;;;10.40;9.50;;;15.40;57.20;;;;;;5029150;28;20053;-69
2021/03/20 13:16:41;;;;;;;10.02;9.18;;;15.50;57.10;;;;;;5032843;28;20475;-69
2021/03/20 13:19:08;;;;;;;9.40;8.70;;;16.50;55.60;;;;;;5032367;28;20132;-69
2021/03/20 13:21:36;;;;;;;9.93;9.13;;;16.50;54.60;;;;;;5033349;28;20356;-69
2021/03/20 13:24:04;;;;;;;11.90;8.88;;;15.50;54.80;;;;;;5033674;28;20439;-69
2021/03/20 13:26:32;;;;;;;9.95;9.15;;;15.60;57.30;;;;;;5030872;28;20093;-68
2021/03/20 13:28:58;;;;;;;10.02;9.02;;;17.10;54.00;;;;;;5029137;28;20105;-69
2021/03/20 13:31:25;;;;;;;9.95;8.98;;;17.50;52.20;;;;;;5026618;28;20041;-69
2021/03/20 13:33:52;;;;;;;10.02;9.20;;;17.20;53.10;;;;;;5032166;28;20055;-69